Terminal Aerodrome Forecast
Issued by NWS Wakefield, VA

Home | Current Version | Previous Version | Text Only | Print | Product List | Glossary On
Versions: 1 2 3 4 5 6 7 8 9 10 11 12 13 14 15 16
000
FTUS41 KAKQ 220500 RRA
TAFECG
TAF
KECG 220548Z 2206/2306 31008KT P6SM SCT015 OVC080
      TEMPO 2206/2210 -RA BKN015
     FM221300 31010G18KT P6SM -RA BKN030 OVC050
     FM221700 31016G25KT P6SM -RA BKN020 OVC040
     FM230000 31014G23KT P6SM BKN030=

USA.gov is the U.S. government's official web portal to all federal, state and local government web resources and services.